Time;durP1;ratioP1;P1;durP2;ratioP2;P2;SDS_P1;SDS_P2;PMS_P1;PMS_P2;Temp;Humidity;BMP_temperature;BMP_pressure;BME280_temperature;BME280_humidity;BME280_pressure;Samples;Min_cycle;Max_cycle;Signal;HPM_P1;HPM_P2
2024/01/24 00:02:10;;;;;;;17.40;4.03;;;;;;;;;;5018850;28;20048;-77
2024/01/24 00:04:36;;;;;;;17.48;4.70;;;;;;;;;;5034660;28;20041;-77
2024/01/24 00:07:02;;;;;;;15.98;4.65;;;;;;;;;;5033286;28;20040;-78
2024/01/24 00:09:30;;;;;;;22.02;4.32;;;;;;;;;;5023523;28;20493;-78
2024/01/24 00:11:56;;;;;;;16.48;4.60;;;;;;;;;;5027015;28;20046;-77
2024/01/24 00:14:22;;;;;;;18.90;4.63;;;;;;;;;;5025704;28;20053;-77
2024/01/24 00:16:48;;;;;;;19.45;4.25;;;;;;;;;;5019470;28;20116;-78
2024/01/24 00:19:14;;;;;;;16.42;4.00;;;;;;;;;;5019078;28;20049;-77
2024/01/24 00:21:40;;;;;;;25.05;5.15;;;;;;;;;;5027605;28;20574;-77
2024/01/24 00:24:06;;;;;;;18.45;4.30;;;;;;;;;;5024609;28;20050;-77
2024/01/24 00:26:33;;;;;;;21.27;4.45;;;;;;;;;;5025619;28;20121;-77
2024/01/24 00:28:59;;;;;;;15.15;4.00;;;;;;;;;;5028406;28;20084;-78
2024/01/24 00:31:25;;;;;;;23.02;5.38;;;;;;;;;;5030536;28;20140;-78
2024/01/24 00:33:52;;;;;;;14.85;4.18;;;;;;;;;;5024205;28;20557;-78
2024/01/24 00:36:18;;;;;;;16.05;4.40;;;;;;;;;;5028217;28;20056;-78
2024/01/24 00:38:44;;;;;;;23.83;5.35;;;;;;;;;;5014800;28;20500;-77
2024/01/24 00:41:10;;;;;;;20.30;4.25;;;;;;;;;;5022712;28;20069;-77
2024/01/24 00:43:36;;;;;;;17.30;5.13;;;;;;;;;;5030765;28;20038;-77
2024/01/24 00:46:03;;;;;;;18.45;4.63;;;;;;;;;;5020439;28;20041;-77
2024/01/24 00:48:29;;;;;;;15.07;3.97;;;;;;;;;;5031615;28;20045;-77
2024/01/24 00:50:55;;;;;;;22.90;4.90;;;;;;;;;;5018267;28;20042;-77
2024/01/24 00:53:21;;;;;;;12.88;4.32;;;;;;;;;;5015433;28;20046;-77
2024/01/24 00:55:47;;;;;;;17.58;4.60;;;;;;;;;;5027464;28;20045;-77
2024/01/24 00:58:13;;;;;;;13.40;3.70;;;;;;;;;;5028720;28;20049;-78
2024/01/24 01:00:39;;;;;;;11.00;3.50;;;;;;;;;;5018458;28;20053;-77
2024/01/24 01:03:05;;;;;;;14.88;3.90;;;;;;;;;;5030971;28;20045;-77
2024/01/24 01:05:31;;;;;;;16.52;4.18;;;;;;;;;;5031528;28;20049;-76
2024/01/24 01:07:57;;;;;;;23.88;4.57;;;;;;;;;;5020322;28;20535;-77
2024/01/24 01:10:23;;;;;;;17.40;4.20;;;;;;;;;;5030318;28;20041;-77
2024/01/24 01:12:50;;;;;;;13.35;4.13;;;;;;;;;;5022653;28;20109;-77
2024/01/24 01:15:16;;;;;;;22.98;4.47;;;;;;;;;;5026146;28;20056;-76
2024/01/24 01:17:42;;;;;;;17.27;3.90;;;;;;;;;;5023636;28;20072;-77
2024/01/24 01:20:09;;;;;;;14.75;4.25;;;;;;;;;;5033237;28;20480;-77
2024/01/24 01:22:35;;;;;;;18.63;4.80;;;;;;;;;;5030432;28;20057;-78
2024/01/24 01:25:02;;;;;;;15.13;4.43;;;;;;;;;;5032969;28;20124;-77
2024/01/24 01:27:28;;;;;;;14.32;3.78;;;;;;;;;;5032914;28;20480;-77
2024/01/24 01:29:54;;;;;;;13.48;3.95;;;;;;;;;;5025689;28;20073;-77
2024/01/24 01:32:20;;;;;;;21.13;4.10;;;;;;;;;;5020129;28;20143;-77
2024/01/24 01:34:46;;;;;;;15.02;3.83;;;;;;;;;;5019881;28;20079;-77
2024/01/24 01:37:12;;;;;;;15.93;3.80;;;;;;;;;;5030314;28;20085;-77
2024/01/24 01:39:39;;;;;;;16.58;3.53;;;;;;;;;;5018797;28;20049;-77
2024/01/24 01:42:05;;;;;;;17.00;4.13;;;;;;;;;;5016323;28;20377;-77
2024/01/24 01:44:33;;;;;;;13.45;3.60;;;;;;;;;;5018150;28;20492;-76
2024/01/24 01:46:59;;;;;;;12.95;4.20;;;;;;;;;;5023220;28;20134;-77
2024/01/24 01:49:25;;;;;;;9.80;3.15;;;;;;;;;;5026889;28;20049;-77
2024/01/24 01:51:52;;;;;;;14.00;3.33;;;;;;;;;;5032457;28;20060;-77
2024/01/24 01:54:18;;;;;;;16.77;3.83;;;;;;;;;;5010171;28;20037;-77
2024/01/24 01:56:44;;;;;;;16.95;4.25;;;;;;;;;;5027213;28;20068;-77
2024/01/24 01:59:10;;;;;;;16.50;3.92;;;;;;;;;;5019445;28;20468;-77
2024/01/24 02:01:36;;;;;;;22.75;4.32;;;;;;;;;;5025483;28;20124;-77
2024/01/24 02:04:02;;;;;;;13.23;3.95;;;;;;;;;;5017157;28;20096;-77
2024/01/24 02:06:28;;;;;;;12.55;3.33;;;;;;;;;;5021827;28;20037;-77
2024/01/24 02:08:55;;;;;;;12.10;3.58;;;;;;;;;;5032321;28;20056;-77
2024/01/24 02:11:21;;;;;;;14.75;3.42;;;;;;;;;;5022856;28;20053;-77
2024/01/24 02:13:47;;;;;;;16.15;4.65;;;;;;;;;;5031313;28;20045;-77
2024/01/24 02:16:13;;;;;;;16.20;3.80;;;;;;;;;;5026529;28;20046;-77
2024/01/24 02:18:41;;;;;;;18.30;3.83;;;;;;;;;;5031202;28;20504;-78
2024/01/24 02:21:07;;;;;;;13.35;3.40;;;;;;;;;;5030696;28;20060;-77
2024/01/24 02:23:33;;;;;;;13.15;3.15;;;;;;;;;;5019279;28;20143;-77
2024/01/24 02:25:59;;;;;;;15.80;3.85;;;;;;;;;;5031387;28;20052;-77
2024/01/24 02:28:25;;;;;;;17.08;4.07;;;;;;;;;;5026810;28;20057;-77
2024/01/24 02:30:51;;;;;;;15.70;4.30;;;;;;;;;;5014580;28;20489;-78
2024/01/24 02:33:17;;;;;;;18.33;4.60;;;;;;;;;;5030618;28;20124;-78
2024/01/24 02:35:43;;;;;;;17.80;4.35;;;;;;;;;;5030982;28;20080;-77
2024/01/24 02:38:09;;;;;;;12.45;3.42;;;;;;;;;;5027335;28;20116;-78
2024/01/24 02:40:35;;;;;;;13.40;3.95;;;;;;;;;;5024512;28;20124;-77
2024/01/24 02:43:01;;;;;;;13.95;4.05;;;;;;;;;;5026903;28;20100;-77
2024/01/24 02:45:27;;;;;;;17.65;4.45;;;;;;;;;;5020479;28;20432;-78
2024/01/24 02:47:53;;;;;;;15.73;3.80;;;;;;;;;;5018073;28;20127;-77
2024/01/24 02:50:19;;;;;;;15.80;4.10;;;;;;;;;;5032197;28;20073;-77
2024/01/24 02:52:45;;;;;;;18.23;4.13;;;;;;;;;;5002092;28;20049;-77
2024/01/24 02:55:16;;;;;;;14.43;4.40;;;;;;;;;;5028949;28;20029;-77
2024/01/24 02:57:43;;;;;;;14.70;4.20;;;;;;;;;;5034429;28;20064;-77
2024/01/24 03:00:09;;;;;;;15.63;3.50;;;;;;;;;;5034983;28;20038;-77
2024/01/24 03:02:35;;;;;;;16.25;4.22;;;;;;;;;;5022129;28;20049;-77
2024/01/24 03:05:02;;;;;;;15.45;4.38;;;;;;;;;;5035396;28;20045;-77
2024/01/24 03:07:28;;;;;;;17.77;3.97;;;;;;;;;;5023828;28;20132;-77
2024/01/24 03:09:54;;;;;;;18.27;4.00;;;;;;;;;;5019203;28;20084;-77
2024/01/24 03:12:20;;;;;;;19.10;4.00;;;;;;;;;;5027816;28;20046;-77
2024/01/24 03:14:46;;;;;;;15.45;4.57;;;;;;;;;;5034906;28;20099;-77
2024/01/24 03:17:12;;;;;;;18.63;4.57;;;;;;;;;;5031895;28;20049;-78
2024/01/24 03:19:38;;;;;;;18.60;4.78;;;;;;;;;;5034463;28;20049;-78
2024/01/24 03:22:04;;;;;;;18.55;4.60;;;;;;;;;;4998966;28;20460;-77
2024/01/24 03:24:30;;;;;;;17.88;4.68;;;;;;;;;;5010151;28;20108;-77
2024/01/24 03:26:56;;;;;;;16.50;4.20;;;;;;;;;;5026704;28;20495;-77
2024/01/24 03:29:22;;;;;;;19.27;5.00;;;;;;;;;;5027429;28;20045;-78
2024/01/24 03:31:48;;;;;;;19.92;4.40;;;;;;;;;;5004442;28;20148;-77
2024/01/24 03:34:14;;;;;;;22.38;5.00;;;;;;;;;;5004778;28;20088;-77
2024/01/24 03:36:40;;;;;;;18.27;4.18;;;;;;;;;;5026373;28;20041;-77
2024/01/24 03:39:09;;;;;;;23.90;5.38;;;;;;;;;;5022164;28;20121;-77
2024/01/24 03:41:38;;;;;;;15.32;4.60;;;;;;;;;;5022386;28;20813;-77
2024/01/24 03:44:04;;;;;;;23.83;4.70;;;;;;;;;;5027733;28;20049;-77
2024/01/24 03:46:30;;;;;;;22.27;4.28;;;;;;;;;;5017926;28;20045;-77
2024/01/24 03:48:56;;;;;;;16.17;4.55;;;;;;;;;;5034770;28;20042;-77
2024/01/24 03:51:23;;;;;;;20.15;4.78;;;;;;;;;;5027773;28;20115;-77
2024/01/24 03:53:49;;;;;;;17.05;4.93;;;;;;;;;;5022910;28;20057;-77
2024/01/24 03:56:15;;;;;;;20.60;4.43;;;;;;;;;;5015184;28;20052;-77
2024/01/24 03:58:41;;;;;;;17.40;4.38;;;;;;;;;;5016127;28;20469;-78
2024/01/24 04:01:07;;;;;;;21.65;5.05;;;;;;;;;;5034490;28;20049;-77
2024/01/24 04:03:33;;;;;;;22.67;4.18;;;;;;;;;;5021667;28;20046;-79
2024/01/24 04:05:59;;;;;;;19.35;5.78;;;;;;;;;;5031482;28;20038;-77
2024/01/24 04:08:25;;;;;;;16.27;4.72;;;;;;;;;;5005913;28;20103;-77
2024/01/24 04:10:51;;;;;;;17.25;4.53;;;;;;;;;;5034599;28;20435;-77
2024/01/24 04:13:17;;;;;;;23.20;4.78;;;;;;;;;;5033971;28;20546;-77
2024/01/24 04:15:44;;;;;;;18.65;5.47;;;;;;;;;;5034675;28;20099;-77
2024/01/24 04:18:10;;;;;;;23.15;4.85;;;;;;;;;;5020268;28;20077;-77
2024/01/24 04:20:36;;;;;;;20.58;4.93;;;;;;;;;;5014556;28;20084;-78
2024/01/24 04:23:02;;;;;;;22.10;4.97;;;;;;;;;;5020687;28;20404;-78
2024/01/24 04:25:28;;;;;;;25.42;5.22;;;;;;;;;;5026866;28;20553;-79
2024/01/24 04:27:54;;;;;;;25.92;5.43;;;;;;;;;;5021393;28;20049;-78
2024/01/24 04:30:20;;;;;;;25.48;5.25;;;;;;;;;;5026856;28;20125;-77
2024/01/24 04:32:46;;;;;;;20.02;5.43;;;;;;;;;;5024266;28;20055;-77
2024/01/24 04:35:12;;;;;;;26.23;6.18;;;;;;;;;;4999712;28;20045;-77
2024/01/24 04:37:38;;;;;;;23.63;6.40;;;;;;;;;;5023262;28;20400;-78
2024/01/24 04:40:05;;;;;;;23.40;6.10;;;;;;;;;;5019105;28;20049;-77
2024/01/24 04:42:31;;;;;;;24.67;6.15;;;;;;;;;;5027187;28;20041;-77
2024/01/24 04:44:57;;;;;;;24.77;6.05;;;;;;;;;;5014826;28;20072;-78
2024/01/24 04:47:23;;;;;;;27.83;5.82;;;;;;;;;;5015028;28;20046;-78
2024/01/24 04:49:49;;;;;;;28.67;7.45;;;;;;;;;;5030722;28;20059;-79
2024/01/24 04:52:15;;;;;;;30.23;7.22;;;;;;;;;;5019200;28;20117;-78
2024/01/24 04:54:44;;;;;;;30.65;6.88;;;;;;;;;;5021131;28;20041;-77
2024/01/24 04:57:10;;;;;;;27.50;7.85;;;;;;;;;;5027399;28;20114;-78
2024/01/24 04:59:36;;;;;;;31.92;6.35;;;;;;;;;;5003807;28;20144;-77
2024/01/24 05:02:08;;;;;;;24.85;5.95;;;;;;;;;;5019334;28;20049;-77
2024/01/24 05:04:34;;;;;;;33.42;6.75;;;;;;;;;;5022625;28;20071;-77
2024/01/24 05:07:00;;;;;;;36.47;7.72;;;;;;;;;;5017893;28;20226;-78
2024/01/24 05:09:26;;;;;;;26.55;7.55;;;;;;;;;;5023296;28;20619;-77
2024/01/24 05:11:52;;;;;;;32.72;6.93;;;;;;;;;;5020116;28;20107;-77
2024/01/24 05:14:18;;;;;;;31.90;6.88;;;;;;;;;;5024160;28;20497;-78
2024/01/24 05:16:44;;;;;;;34.35;8.57;;;;;;;;;;5015388;28;20049;-78
2024/01/24 05:19:10;;;;;;;25.83;6.80;;;;;;;;;;5023750;28;20037;-78
2024/01/24 05:21:41;;;;;;;28.80;6.82;;;;;;;;;;5030217;28;20061;-77
2024/01/24 05:24:08;;;;;;;36.85;7.22;;;;;;;;;;5004084;28;20061;-77
2024/01/24 05:26:35;;;;;;;36.70;7.63;;;;;;;;;;5024120;28;20052;-78
2024/01/24 05:29:01;;;;;;;31.83;7.80;;;;;;;;;;5019085;28;20041;-77
2024/01/24 05:31:28;;;;;;;30.63;7.20;;;;;;;;;;5019460;28;20125;-77
2024/01/24 05:33:55;;;;;;;34.70;7.93;;;;;;;;;;5033092;28;20038;-77
2024/01/24 05:36:22;;;;;;;32.20;8.75;;;;;;;;;;5029068;28;20037;-77
2024/01/24 05:38:48;;;;;;;35.17;7.15;;;;;;;;;;5016598;28;20073;-77
2024/01/24 05:41:14;;;;;;;28.88;7.30;;;;;;;;;;5025888;28;20049;-77
2024/01/24 05:43:40;;;;;;;31.02;7.63;;;;;;;;;;5016403;28;20049;-77
2024/01/24 05:46:06;;;;;;;36.58;9.52;;;;;;;;;;5021452;28;20049;-77
2024/01/24 05:48:32;;;;;;;42.97;8.55;;;;;;;;;;5014605;28;20046;-77
2024/01/24 05:50:58;;;;;;;31.83;8.13;;;;;;;;;;5026452;28;20092;-77
2024/01/24 05:53:24;;;;;;;29.98;7.45;;;;;;;;;;5024130;28;20041;-77
2024/01/24 05:55:50;;;;;;;31.85;7.22;;;;;;;;;;5019751;28;20103;-77
2024/01/24 05:58:18;;;;;;;35.08;8.32;;;;;;;;;;5008708;28;20037;-77
2024/01/24 06:00:44;;;;;;;35.90;9.25;;;;;;;;;;5028450;28;20045;-78
2024/01/24 06:03:11;;;;;;;32.83;7.75;;;;;;;;;;5023007;28;20096;-77
2024/01/24 06:05:37;;;;;;;36.55;7.07;;;;;;;;;;5011582;28;20041;-77
2024/01/24 06:08:05;;;;;;;31.23;6.82;;;;;;;;;;5023497;28;20042;-77
2024/01/24 06:10:31;;;;;;;28.52;7.60;;;;;;;;;;5030663;28;20053;-77
2024/01/24 06:12:57;;;;;;;29.25;6.40;;;;;;;;;;5020375;28;20053;-77
2024/01/24 06:15:23;;;;;;;28.67;7.15;;;;;;;;;;5016309;28;20057;-77
2024/01/24 06:17:49;;;;;;;32.08;7.78;;;;;;;;;;5022302;28;20054;-77
2024/01/24 06:20:15;;;;;;;35.55;7.53;;;;;;;;;;5031053;28;20052;-77
2024/01/24 06:22:42;;;;;;;29.10;6.82;;;;;;;;;;5028009;28;20080;-77
2024/01/24 06:25:08;;;;;;;33.83;8.43;;;;;;;;;;5022567;28;20099;-78
2024/01/24 06:27:35;;;;;;;33.17;8.07;;;;;;;;;;5022047;28;20042;-77
2024/01/24 06:30:01;;;;;;;40.67;7.30;;;;;;;;;;5011957;28;20096;-77
2024/01/24 06:32:27;;;;;;;37.20;7.50;;;;;;;;;;5033851;28;20037;-77
2024/01/24 06:34:53;;;;;;;30.70;8.52;;;;;;;;;;5028800;28;20054;-77
2024/01/24 06:37:19;;;;;;;28.20;7.88;;;;;;;;;;5036165;28;20044;-77
2024/01/24 06:39:45;;;;;;;37.03;8.68;;;;;;;;;;5023000;28;20116;-77
2024/01/24 06:42:11;;;;;;;36.03;8.32;;;;;;;;;;5036057;28;20073;-77
2024/01/24 06:44:37;;;;;;;34.05;7.60;;;;;;;;;;5035574;28;20042;-78
2024/01/24 06:47:03;;;;;;;30.73;6.30;;;;;;;;;;5023792;28;20052;-77
2024/01/24 06:49:29;;;;;;;41.42;8.00;;;;;;;;;;5022196;28;20124;-77
2024/01/24 06:51:56;;;;;;;38.10;7.93;;;;;;;;;;5023453;28;20469;-78
2024/01/24 06:54:22;;;;;;;33.10;8.20;;;;;;;;;;5016235;28;20049;-77
2024/01/24 06:56:48;;;;;;;30.65;7.40;;;;;;;;;;5028226;28;20404;-77
2024/01/24 06:59:14;;;;;;;32.30;7.22;;;;;;;;;;5035635;28;20504;-78
2024/01/24 07:01:40;;;;;;;36.38;7.47;;;;;;;;;;5023026;28;20073;-79
2024/01/24 07:04:06;;;;;;;23.02;5.82;;;;;;;;;;5016907;28;20483;-77
2024/01/24 07:06:32;;;;;;;24.98;6.95;;;;;;;;;;5020336;28;20037;-78
2024/01/24 07:08:58;;;;;;;30.75;6.65;;;;;;;;;;5033562;28;20038;-77
2024/01/24 07:11:24;;;;;;;32.17;6.80;;;;;;;;;;5035198;28;20095;-77
2024/01/24 07:13:50;;;;;;;29.73;6.57;;;;;;;;;;5029063;28;20041;-78
2024/01/24 07:16:16;;;;;;;25.52;7.13;;;;;;;;;;5028896;28;20115;-78
2024/01/24 07:18:42;;;;;;;28.92;6.35;;;;;;;;;;5008857;28;20045;-77
2024/01/24 07:21:08;;;;;;;22.42;6.05;;;;;;;;;;5034844;28;20045;-77
2024/01/24 07:23:37;;;;;;;29.98;6.93;;;;;;;;;;5023748;28;20042;-78
2024/01/24 07:26:03;;;;;;;29.33;6.45;;;;;;;;;;5022779;28;20077;-78
2024/01/24 07:28:29;;;;;;;32.63;7.28;;;;;;;;;;5021582;28;20553;-78
2024/01/24 07:30:56;;;;;;;30.42;6.50;;;;;;;;;;5022762;28;20049;-77
2024/01/24 07:33:22;;;;;;;36.13;6.85;;;;;;;;;;5019674;28;20140;-77
2024/01/24 07:35:48;;;;;;;29.10;7.78;;;;;;;;;;4991915;28;20049;-78
2024/01/24 07:38:14;;;;;;;29.17;7.65;;;;;;;;;;5023688;28;20063;-77
2024/01/24 07:40:40;;;;;;;30.40;7.55;;;;;;;;;;5020944;28;20572;-77
2024/01/24 07:43:06;;;;;;;24.90;6.80;;;;;;;;;;5029335;28;20060;-77
2024/01/24 07:45:32;;;;;;;37.72;7.57;;;;;;;;;;5033156;28;20068;-77
2024/01/24 07:47:58;;;;;;;35.92;8.52;;;;;;;;;;5021565;28;20117;-77
2024/01/24 07:50:27;;;;;;;32.00;6.63;;;;;;;;;;5020065;28;20513;-77
2024/01/24 07:52:53;;;;;;;36.38;8.10;;;;;;;;;;5021087;28;20404;-77
2024/01/24 07:55:19;;;;;;;38.55;9.77;;;;;;;;;;5007443;28;20046;-77
2024/01/24 07:57:45;;;;;;;36.38;7.78;;;;;;;;;;5033560;28;20520;-77
2024/01/24 08:00:16;;;;;;;33.65;8.95;;;;;;;;;;5032714;28;20558;-77
2024/01/24 08:02:46;;;;;;;31.27;7.38;;;;;;;;;;5028843;28;20037;-77
2024/01/24 08:05:15;;;;;;;28.42;7.35;;;;;;;;;;5014979;28;20052;-77
2024/01/24 08:07:41;;;;;;;29.73;7.20;;;;;;;;;;5033246;28;20160;-77
2024/01/24 08:10:10;;;;;;;33.42;7.15;;;;;;;;;;5034060;28;20053;-77
2024/01/24 08:12:37;;;;;;;31.20;7.40;;;;;;;;;;5030793;28;20034;-77
2024/01/24 08:15:05;;;;;;;32.90;6.95;;;;;;;;;;5025025;28;20131;-77
2024/01/24 08:17:32;;;;;;;31.45;7.13;;;;;;;;;;5016178;28;20077;-77
2024/01/24 08:19:58;;;;;;;31.65;8.07;;;;;;;;;;5033181;28;20046;-79
2024/01/24 08:22:24;;;;;;;26.95;6.22;;;;;;;;;;5030036;28;20128;-78
2024/01/24 08:24:50;;;;;;;29.10;6.43;;;;;;;;;;5026827;28;20405;-78
2024/01/24 08:27:17;;;;;;;30.67;7.03;;;;;;;;;;5028250;28;20068;-78
2024/01/24 08:29:43;;;;;;;29.25;7.32;;;;;;;;;;5034359;28;20057;-78
2024/01/24 08:32:10;;;;;;;36.70;8.93;;;;;;;;;;5034754;28;20045;-78
2024/01/24 08:34:36;;;;;;;25.65;6.47;;;;;;;;;;5031863;28;20034;-77
2024/01/24 08:37:02;;;;;;;28.23;7.38;;;;;;;;;;5001935;28;20041;-78
2024/01/24 08:39:28;;;;;;;25.73;6.50;;;;;;;;;;5030187;28;20054;-78
2024/01/24 08:41:54;;;;;;;28.70;6.88;;;;;;;;;;5030603;28;20099;-77
2024/01/24 08:44:20;;;;;;;32.55;6.50;;;;;;;;;;5008073;28;20559;-78
2024/01/24 08:46:47;;;;;;;30.10;7.45;;;;;;;;;;5024577;28;20568;-77
2024/01/24 08:49:13;;;;;;;31.15;6.97;;;;;;;;;;5025027;28;20045;-77
2024/01/24 08:51:39;;;;;;;33.15;6.93;;;;;;;;;;5014193;28;20042;-77
2024/01/24 08:54:05;;;;;;;25.30;6.43;;;;;;;;;;5016935;28;20531;-77
2024/01/24 08:56:31;;;;;;;24.23;5.70;;;;;;;;;;5024838;28;20120;-77
2024/01/24 08:58:57;;;;;;;32.30;7.22;;;;;;;;;;5030046;28;20081;-77
2024/01/24 09:01:23;;;;;;;36.35;8.05;;;;;;;;;;5022589;28;20044;-77
2024/01/24 09:03:49;;;;;;;30.88;7.38;;;;;;;;;;5011466;28;20104;-77
2024/01/24 09:06:15;;;;;;;25.13;7.40;;;;;;;;;;5033198;28;20053;-77
2024/01/24 09:08:45;;;;;;;33.42;7.40;;;;;;;;;;5026465;28;20060;-77
2024/01/24 09:11:12;;;;;;;26.90;6.57;;;;;;;;;;5033592;28;20049;-77
2024/01/24 09:13:38;;;;;;;28.38;6.47;;;;;;;;;;5025484;28;20057;-80
2024/01/24 09:16:05;;;;;;;23.33;7.00;;;;;;;;;;5026079;28;20092;-80
2024/01/24 09:18:31;;;;;;;26.63;6.38;;;;;;;;;;5012738;28;20498;-79
2024/01/24 09:20:57;;;;;;;31.13;6.63;;;;;;;;;;5037468;28;20080;-80
2024/01/24 09:23:23;;;;;;;24.88;6.60;;;;;;;;;;5037996;28;20357;-79
2024/01/24 09:25:49;;;;;;;29.98;6.00;;;;;;;;;;5028357;28;20447;-79
2024/01/24 09:28:15;;;;;;;29.48;6.47;;;;;;;;;;5035002;28;20592;-79
2024/01/24 09:30:41;;;;;;;34.40;7.30;;;;;;;;;;5034124;28;20081;-79
2024/01/24 09:33:07;;;;;;;22.13;5.82;;;;;;;;;;5030689;28;20072;-77
2024/01/24 09:35:33;;;;;;;26.02;6.47;;;;;;;;;;5025208;28;20038;-77
2024/01/24 09:37:59;;;;;;;36.03;7.35;;;;;;;;;;5028083;28;20068;-77
2024/01/24 09:40:25;;;;;;;30.88;6.47;;;;;;;;;;5030343;28;20046;-77
2024/01/24 09:42:51;;;;;;;30.40;7.25;;;;;;;;;;5002572;28;20068;-77
2024/01/24 09:45:17;;;;;;;31.67;6.25;;;;;;;;;;5022184;28;20132;-77
2024/01/24 09:47:44;;;;;;;23.42;6.78;;;;;;;;;;5029468;28;20099;-78
2024/01/24 09:50:11;;;;;;;29.15;7.63;;;;;;;;;;5024052;28;20540;-77
2024/01/24 09:52:37;;;;;;;28.55;6.78;;;;;;;;;;5028718;28;20046;-78
2024/01/24 09:55:04;;;;;;;29.48;8.15;;;;;;;;;;5030632;28;20045;-77
2024/01/24 09:57:32;;;;;;;36.40;7.43;;;;;;;;;;5031663;28;20053;-76
2024/01/24 09:59:58;;;;;;;26.15;6.32;;;;;;;;;;5031561;28;20038;-78
2024/01/24 10:02:26;;;;;;;26.45;6.68;;;;;;;;;;5029053;28;20100;-77
2024/01/24 10:04:53;;;;;;;32.33;6.63;;;;;;;;;;5028142;28;20077;-77
2024/01/24 10:07:20;;;;;;;25.85;6.22;;;;;;;;;;5032577;28;20037;-77
2024/01/24 10:09:57;;;;;;;29.05;5.82;;;;;;;;;;5031447;28;20115;-77
2024/01/24 10:12:23;;;;;;;27.65;6.85;;;;;;;;;;5015030;28;20092;-77
2024/01/24 10:14:49;;;;;;;30.20;6.22;;;;;;;;;;5027967;28;20092;-77
2024/01/24 10:17:15;;;;;;;25.30;5.97;;;;;;;;;;5013467;28;20081;-77
2024/01/24 10:19:41;;;;;;;32.88;6.60;;;;;;;;;;5030840;28;20136;-77
2024/01/24 10:22:07;;;;;;;29.80;7.03;;;;;;;;;;5021913;28;20041;-78
2024/01/24 10:24:34;;;;;;;27.25;6.25;;;;;;;;;;5029555;28;20077;-77
2024/01/24 10:27:00;;;;;;;22.83;6.03;;;;;;;;;;5030950;28;20045;-78
2024/01/24 10:29:26;;;;;;;23.75;7.57;;;;;;;;;;5022537;28;20052;-77
2024/01/24 10:31:56;;;;;;;28.30;6.22;;;;;;;;;;5030711;28;20041;-77
2024/01/24 10:34:26;;;;;;;21.38;5.55;;;;;;;;;;5028454;28;20064;-77
2024/01/24 10:36:52;;;;;;;27.42;6.82;;;;;;;;;;5026938;28;20172;-77
2024/01/24 10:39:22;;;;;;;18.25;6.07;;;;;;;;;;5031736;28;20041;-77
2024/01/24 10:41:49;;;;;;;29.73;7.50;;;;;;;;;;5023048;28;20046;-77
2024/01/24 10:44:17;;;;;;;36.10;6.97;;;;;;;;;;5031919;28;20567;-77
2024/01/24 10:46:43;;;;;;;29.05;7.30;;;;;;;;;;5026404;28;20081;-77
2024/01/24 10:49:12;;;;;;;28.98;6.22;;;;;;;;;;5018686;28;20171;-77
2024/01/24 10:51:38;;;;;;;23.02;6.35;;;;;;;;;;5029090;28;20411;-76
2024/01/24 10:54:05;;;;;;;32.20;7.25;;;;;;;;;;5029956;28;20050;-77
2024/01/24 10:56:32;;;;;;;26.80;7.47;;;;;;;;;;5028230;28;20120;-79
2024/01/24 10:59:00;;;;;;;26.63;6.95;;;;;;;;;;5020795;28;20044;-77
2024/01/24 11:01:26;;;;;;;28.40;6.90;;;;;;;;;;5030844;28;20468;-77
2024/01/24 11:03:53;;;;;;;24.08;6.03;;;;;;;;;;5007377;28;20049;-78
2024/01/24 11:06:21;;;;;;;29.80;5.88;;;;;;;;;;5013233;28;20611;-78
2024/01/24 11:09:08;;;;;;;18.30;5.32;;;;;;;;;;5031469;28;20488;-77
2024/01/24 11:11:35;;;;;;;24.42;5.90;;;;;;;;;;5030892;28;20117;-77
2024/01/24 11:14:02;;;;;;;31.25;6.40;;;;;;;;;;5030031;28;20045;-78
2024/01/24 11:16:29;;;;;;;31.35;7.25;;;;;;;;;;5027035;28;20159;-79
2024/01/24 11:19:00;;;;;;;28.58;6.30;;;;;;;;;;5035133;28;20511;-78
2024/01/24 11:21:28;;;;;;;27.45;6.70;;;;;;;;;;5017121;28;20111;-77
2024/01/24 11:23:54;;;;;;;26.38;6.50;;;;;;;;;;5030517;28;20046;-78
2024/01/24 11:26:20;;;;;;;29.88;6.38;;;;;;;;;;5022136;28;20049;-78
2024/01/24 11:28:46;;;;;;;32.05;6.25;;;;;;;;;;5035166;28;20033;-77
2024/01/24 11:31:13;;;;;;;28.35;6.15;;;;;;;;;;5027731;28;20041;-77
2024/01/24 11:33:58;;;;;;;26.40;6.45;;;;;;;;;;5032852;28;20460;-77
2024/01/24 11:36:26;;;;;;;26.73;6.25;;;;;;;;;;5027934;28;20120;-77
2024/01/24 11:38:52;;;;;;;33.85;7.43;;;;;;;;;;5033893;28;20045;-78
2024/01/24 11:41:20;;;;;;;27.92;6.28;;;;;;;;;;5029716;28;20062;-78
2024/01/24 11:43:48;;;;;;;23.05;6.30;;;;;;;;;;5024694;28;20041;-78
2024/01/24 11:46:14;;;;;;;29.95;5.93;;;;;;;;;;5033937;28;20128;-77
2024/01/24 11:48:40;;;;;;;31.13;8.00;;;;;;;;;;5035041;28;20037;-78
2024/01/24 11:51:08;;;;;;;26.00;6.40;;;;;;;;;;5034699;28;20500;-79
2024/01/24 11:53:34;;;;;;;20.52;5.93;;;;;;;;;;5033983;28;20148;-79
2024/01/24 11:56:05;;;;;;;25.42;6.72;;;;;;;;;;5034107;28;20041;-73
2024/01/24 11:58:31;;;;;;;30.45;7.22;;;;;;;;;;5034477;28;20444;-72
2024/01/24 12:01:01;;;;;;;21.42;4.82;;;;;;;;;;5033063;28;20129;-73
2024/01/24 12:03:27;;;;;;;22.05;6.20;;;;;;;;;;5032642;28;20238;-73
2024/01/24 12:05:53;;;;;;;28.50;7.28;;;;;;;;;;5032356;28;20476;-73
2024/01/24 12:08:20;;;;;;;19.40;5.50;;;;;;;;;;5033552;28;20050;-73
2024/01/24 12:10:46;;;;;;;26.10;6.78;;;;;;;;;;5016202;28;20052;-73
2024/01/24 12:13:13;;;;;;;25.20;6.10;;;;;;;;;;5033939;28;20045;-73
2024/01/24 12:15:42;;;;;;;34.00;7.20;;;;;;;;;;5033672;28;20052;-73
2024/01/24 12:18:12;;;;;;;30.10;6.68;;;;;;;;;;5031784;28;20053;-73
2024/01/24 12:20:38;;;;;;;39.97;6.97;;;;;;;;;;5016013;28;20055;-73
2024/01/24 12:23:06;;;;;;;26.15;7.38;;;;;;;;;;5033198;28;20127;-73
2024/01/24 12:25:32;;;;;;;31.15;6.55;;;;;;;;;;5033210;28;20045;-73
2024/01/24 12:27:59;;;;;;;25.63;6.32;;;;;;;;;;5030780;28;20037;-73
2024/01/24 12:30:32;;;;;;;25.10;6.50;;;;;;;;;;5031644;28;20386;-73
2024/01/24 12:32:59;;;;;;;36.55;7.50;;;;;;;;;;5033777;28;20080;-73
2024/01/24 12:35:25;;;;;;;27.77;7.30;;;;;;;;;;5032105;28;20065;-73
2024/01/24 12:37:57;;;;;;;38.13;7.60;;;;;;;;;;5032753;28;20567;-73
2024/01/24 12:40:23;;;;;;;21.63;5.55;;;;;;;;;;5024433;28;20124;-73
2024/01/24 12:42:49;;;;;;;21.42;6.30;;;;;;;;;;5032401;28;20141;-73
2024/01/24 12:45:15;;;;;;;22.67;5.63;;;;;;;;;;5032452;28;20045;-73
2024/01/24 12:47:44;;;;;;;25.20;6.20;;;;;;;;;;5033772;28;20072;-73
2024/01/24 12:50:10;;;;;;;21.38;6.45;;;;;;;;;;5033650;28;20314;-73
2024/01/24 12:52:37;;;;;;;22.02;5.93;;;;;;;;;;5033181;28;20077;-73
2024/01/24 12:55:05;;;;;;;24.38;6.35;;;;;;;;;;5022159;28;20037;-73
2024/01/24 12:57:31;;;;;;;33.88;6.40;;;;;;;;;;5031587;28;20091;-73
2024/01/24 12:59:57;;;;;;;26.00;5.63;;;;;;;;;;5029728;28;20157;-73
2024/01/24 13:02:24;;;;;;;19.73;6.43;;;;;;;;;;5031942;28;20033;-73
2024/01/24 13:04:50;;;;;;;23.95;6.57;;;;;;;;;;5032911;28;20468;-73
2024/01/24 13:07:16;;;;;;;31.83;6.68;;;;;;;;;;5029607;28;20100;-73
2024/01/24 13:09:42;;;;;;;24.98;6.38;;;;;;;;;;5013453;28;20042;-73
2024/01/24 13:12:08;;;;;;;24.63;6.38;;;;;;;;;;5031271;28;20069;-73
2024/01/24 13:14:34;;;;;;;32.35;6.43;;;;;;;;;;5032542;28;20052;-73
2024/01/24 13:17:03;;;;;;;23.00;5.32;;;;;;;;;;5032627;28;20120;-73
2024/01/24 13:19:32;;;;;;;27.25;6.88;;;;;;;;;;5032036;28;20044;-73
2024/01/24 13:21:59;;;;;;;24.38;5.85;;;;;;;;;;5031848;28;20488;-73
2024/01/24 13:24:25;;;;;;;25.27;6.03;;;;;;;;;;5032818;28;20077;-73
2024/01/24 13:26:51;;;;;;;18.10;5.00;;;;;;;;;;5027261;28;20080;-73
2024/01/24 13:29:17;;;;;;;28.13;6.63;;;;;;;;;;5031736;28;20490;-73
2024/01/24 13:31:44;;;;;;;34.67;6.47;;;;;;;;;;5031485;28;20052;-73
2024/01/24 13:34:10;;;;;;;28.73;7.15;;;;;;;;;;5032309;28;20046;-73
2024/01/24 13:36:37;;;;;;;28.15;6.63;;;;;;;;;;5025453;28;20102;-73
2024/01/24 13:39:05;;;;;;;26.58;6.18;;;;;;;;;;5029811;28;20044;-72
2024/01/24 13:41:31;;;;;;;25.92;6.95;;;;;;;;;;5030446;28;20053;-72
2024/01/24 13:43:57;;;;;;;36.33;7.30;;;;;;;;;;5031223;28;20400;-73
2024/01/24 13:46:24;;;;;;;25.35;6.00;;;;;;;;;;5032048;28;20506;-72
2024/01/24 13:48:50;;;;;;;33.50;6.78;;;;;;;;;;5028069;28;20053;-74
2024/01/24 13:51:16;;;;;;;31.25;7.13;;;;;;;;;;5030558;28;20059;-73
2024/01/24 13:53:42;;;;;;;29.35;6.35;;;;;;;;;;5031051;28;20037;-74
2024/01/24 13:56:08;;;;;;;32.80;7.50;;;;;;;;;;5025929;28;20045;-73
2024/01/24 13:58:35;;;;;;;27.88;6.20;;;;;;;;;;5026976;28;20064;-73
2024/01/24 14:01:01;;;;;;;32.15;6.03;;;;;;;;;;5032517;28;20489;-73
2024/01/24 14:03:27;;;;;;;27.52;5.95;;;;;;;;;;5032676;28;20053;-72
2024/01/24 14:05:53;;;;;;;22.38;6.07;;;;;;;;;;5032555;28;20156;-72
2024/01/24 14:08:19;;;;;;;34.80;7.13;;;;;;;;;;5025985;28;20120;-72
2024/01/24 14:10:45;;;;;;;31.55;7.45;;;;;;;;;;5032107;28;20084;-72
2024/01/24 14:13:11;;;;;;;29.05;6.88;;;;;;;;;;5025470;28;20073;-73
2024/01/24 14:15:38;;;;;;;29.83;7.75;;;;;;;;;;5029080;28;20057;-73
2024/01/24 14:18:04;;;;;;;34.33;7.22;;;;;;;;;;5025125;28;20046;-73
2024/01/24 14:20:30;;;;;;;34.58;7.55;;;;;;;;;;5019585;28;20045;-73
2024/01/24 14:22:56;;;;;;;29.90;8.15;;;;;;;;;;5032477;28;20041;-73
2024/01/24 14:25:22;;;;;;;25.17;6.35;;;;;;;;;;5032507;28;20095;-73
2024/01/24 14:27:48;;;;;;;26.40;7.15;;;;;;;;;;5032469;28;20045;-73